Terminal Aerodrome Forecast
Issued by NWS Twin Cities, MN

Home | Current Version | Previous Version | Text Only | Print | Product List | Glossary On
Versions: 1 2 3 4 5 6 7 8 9 10 11 12 13 14 15 16
975
FTUS43 KMPX 112227 AAA
TAFSTC
TAF AMD
KSTC 112227Z 1122/1218 23006KT 5SM -SN SCT025 OVC035
     FM120000 24005KT P6SM -SN OVC025
     FM120300 27004KT P6SM OVC020
     FM120600 31007KT P6SM BKN050
     FM121000 32014G21KT P6SM SKC=

USA.gov is the U.S. government's official web portal to all federal, state and local government web resources and services.